sensor_id;sensor_type;location;lat;lon;timestamp;P1;durP1;ratioP1;P2;durP2;ratioP2
16430;SDS011;8325;49.284;7.238;2022-09-12T04:01:24;11.65;;;6.75;;
16430;SDS011;8325;49.284;7.238;2022-09-12T04:05:35;10.95;;;7.25;;
16430;SDS011;8325;49.284;7.238;2022-09-12T04:09:47;9.55;;;7.35;;
16430;SDS011;8325;49.284;7.238;2022-09-12T04:14:00;10.98;;;6.82;;
16430;SDS011;8325;49.284;7.238;2022-09-12T04:18:11;9.75;;;6.57;;
16430;SDS011;8325;49.284;7.238;2022-09-12T04:22:23;11.43;;;6.85;;
16430;SDS011;8325;49.284;7.238;2022-09-12T04:26:34;13.02;;;7.15;;
16430;SDS011;8325;49.284;7.238;2022-09-12T04:30:46;9.73;;;6.95;;
16430;SDS011;8325;49.284;7.238;2022-09-12T04:34:57;9.55;;;7.20;;
16430;SDS011;8325;49.284;7.238;2022-09-12T04:39:09;8.77;;;6.70;;
16430;SDS011;8325;49.284;7.238;2022-09-12T04:43:21;9.00;;;6.80;;
16430;SDS011;8325;49.284;7.238;2022-09-12T04:47:32;9.43;;;6.68;;
16430;SDS011;8325;49.284;7.238;2022-09-12T04:51:44;8.35;;;6.63;;
16430;SDS011;8325;49.284;7.238;2022-09-12T04:56:00;9.25;;;6.85;;
16430;SDS011;8325;49.284;7.238;2022-09-12T05:00:12;8.57;;;6.78;;
16430;SDS011;8325;49.284;7.238;2022-09-12T05:04:25;11.00;;;6.60;;
16430;SDS011;8325;49.284;7.238;2022-09-12T05:08:36;8.50;;;6.75;;
16430;SDS011;8325;49.284;7.238;2022-09-12T05:12:48;9.35;;;6.75;;
16430;SDS011;8325;49.284;7.238;2022-09-12T05:17:00;8.82;;;6.20;;
16430;SDS011;8325;49.284;7.238;2022-09-12T05:21:13;8.98;;;6.03;;
16430;SDS011;8325;49.284;7.238;2022-09-12T05:25:26;10.10;;;6.65;;
16430;SDS011;8325;49.284;7.238;2022-09-12T05:29:37;8.02;;;6.30;;
16430;SDS011;8325;49.284;7.238;2022-09-12T05:33:49;7.35;;;5.97;;
16430;SDS011;8325;49.284;7.238;2022-09-12T05:38:02;8.93;;;6.45;;
16430;SDS011;8325;49.284;7.238;2022-09-12T05:42:14;8.20;;;6.22;;
16430;SDS011;8325;49.284;7.238;2022-09-12T05:46:26;8.52;;;6.35;;
16430;SDS011;8325;49.284;7.238;2022-09-12T05:50:39;7.88;;;5.85;;
16430;SDS011;8325;49.284;7.238;2022-09-12T05:54:52;7.68;;;6.18;;
16430;SDS011;8325;49.284;7.238;2022-09-12T05:59:05;8.10;;;6.45;;
16430;SDS011;8325;49.284;7.238;2022-09-12T06:03:18;7.28;;;6.35;;
16430;SDS011;8325;49.284;7.238;2022-09-12T06:07:29;9.38;;;6.13;;
16430;SDS011;8325;49.284;7.238;2022-09-12T06:11:43;9.18;;;6.28;;
16430;SDS011;8325;49.284;7.238;2022-09-12T06:16:00;7.60;;;6.00;;
16430;SDS011;8325;49.284;7.238;2022-09-12T06:20:20;6.63;;;5.93;;
16430;SDS011;8325;49.284;7.238;2022-09-12T06:24:31;7.07;;;6.35;;
16430;SDS011;8325;49.284;7.238;2022-09-12T06:28:43;8.70;;;6.10;;
16430;SDS011;8325;49.284;7.238;2022-09-12T06:32:55;8.85;;;6.22;;
16430;SDS011;8325;49.284;7.238;2022-09-12T06:37:07;7.88;;;6.50;;
16430;SDS011;8325;49.284;7.238;2022-09-12T06:41:18;8.10;;;6.45;;
16430;SDS011;8325;49.284;7.238;2022-09-12T06:45:30;8.07;;;5.93;;
16430;SDS011;8325;49.284;7.238;2022-09-12T06:49:41;8.07;;;6.20;;
16430;SDS011;8325;49.284;7.238;2022-09-12T06:53:53;7.18;;;5.97;;
16430;SDS011;8325;49.284;7.238;2022-09-12T06:58:07;8.20;;;6.60;;
16430;SDS011;8325;49.284;7.238;2022-09-12T07:02:18;6.90;;;5.70;;
16430;SDS011;8325;49.284;7.238;2022-09-12T07:06:34;7.72;;;6.07;;
16430;SDS011;8325;49.284;7.238;2022-09-12T07:10:47;9.90;;;6.85;;
16430;SDS011;8325;49.284;7.238;2022-09-12T07:14:58;10.77;;;7.60;;
16430;SDS011;8325;49.284;7.238;2022-09-12T07:19:10;12.88;;;9.18;;
16430;SDS011;8325;49.284;7.238;2022-09-12T07:23:22;8.27;;;6.50;;
16430;SDS011;8325;49.284;7.238;2022-09-12T07:27:33;7.13;;;6.13;;
16430;SDS011;8325;49.284;7.238;2022-09-12T07:31:45;7.22;;;6.53;;
16430;SDS011;8325;49.284;7.238;2022-09-12T07:36:03;8.27;;;6.57;;
16430;SDS011;8325;49.284;7.238;2022-09-12T07:40:16;7.97;;;6.50;;
16430;SDS011;8325;49.284;7.238;2022-09-12T07:44:27;6.57;;;5.80;;
16430;SDS011;8325;49.284;7.238;2022-09-12T07:48:39;6.78;;;5.97;;
16430;SDS011;8325;49.284;7.238;2022-09-12T07:52:52;8.52;;;7.15;;
16430;SDS011;8325;49.284;7.238;2022-09-12T07:57:05;8.70;;;6.82;;
16430;SDS011;8325;49.284;7.238;2022-09-12T08:01:20;9.57;;;7.13;;
16430;SDS011;8325;49.284;7.238;2022-09-12T08:05:35;8.80;;;6.70;;
16430;SDS011;8325;49.284;7.238;2022-09-12T08:09:47;10.27;;;6.80;;
16430;SDS011;8325;49.284;7.238;2022-09-12T08:13:58;8.75;;;6.68;;
16430;SDS011;8325;49.284;7.238;2022-09-12T08:18:13;9.20;;;7.15;;
16430;SDS011;8325;49.284;7.238;2022-09-12T08:22:25;9.27;;;7.07;;
16430;SDS011;8325;49.284;7.238;2022-09-12T08:26:36;8.88;;;7.20;;
16430;SDS011;8325;49.284;7.238;2022-09-12T08:30:48;6.85;;;5.85;;
16430;SDS011;8325;49.284;7.238;2022-09-12T08:35:00;6.82;;;6.15;;
16430;SDS011;8325;49.284;7.238;2022-09-12T08:39:11;7.93;;;6.50;;
16430;SDS011;8325;49.284;7.238;2022-09-12T08:47:53;9.43;;;6.28;;
16430;SDS011;8325;49.284;7.238;2022-09-12T08:52:10;7.25;;;6.38;;
16430;SDS011;8325;49.284;7.238;2022-09-12T08:56:27;13.25;;;7.00;;
16430;SDS011;8325;49.284;7.238;2022-09-12T09:00:48;9.05;;;6.40;;
16430;SDS011;8325;49.284;7.238;2022-09-12T09:14:19;8.60;;;6.10;;
16430;SDS011;8325;49.284;7.238;2022-09-12T09:18:51;5.97;;;5.45;;
16430;SDS011;8325;49.284;7.238;2022-09-12T09:23:07;7.28;;;5.88;;
16430;SDS011;8325;49.284;7.238;2022-09-12T09:27:32;6.15;;;5.55;;
16430;SDS011;8325;49.284;7.238;2022-09-12T09:31:54;5.97;;;5.30;;
16430;SDS011;8325;49.284;7.238;2022-09-12T09:40:44;5.30;;;4.80;;
16430;SDS011;8325;49.284;7.238;2022-09-12T09:45:09;5.03;;;4.53;;
16430;SDS011;8325;49.284;7.238;2022-09-12T09:49:25;4.57;;;4.18;;
16430;SDS011;8325;49.284;7.238;2022-09-12T09:53:50;6.55;;;4.20;;
16430;SDS011;8325;49.284;7.238;2022-09-12T09:58:05;4.65;;;3.80;;
16430;SDS011;8325;49.284;7.238;2022-09-12T10:02:20;5.43;;;4.15;;
16430;SDS011;8325;49.284;7.238;2022-09-12T10:06:34;4.55;;;4.13;;
16430;SDS011;8325;49.284;7.238;2022-09-12T10:10:55;4.70;;;4.30;;
16430;SDS011;8325;49.284;7.238;2022-09-12T10:15:16;4.35;;;3.95;;
16430;SDS011;8325;49.284;7.238;2022-09-12T10:19:33;4.55;;;4.07;;
16430;SDS011;8325;49.284;7.238;2022-09-12T10:23:47;4.57;;;3.60;;
16430;SDS011;8325;49.284;7.238;2022-09-12T10:28:04;5.45;;;3.97;;
16430;SDS011;8325;49.284;7.238;2022-09-12T10:36:46;3.72;;;3.42;;
16430;SDS011;8325;49.284;7.238;2022-09-12T10:41:07;3.88;;;3.58;;
16430;SDS011;8325;49.284;7.238;2022-09-12T10:45:25;3.45;;;3.15;;
16430;SDS011;8325;49.284;7.238;2022-09-12T10:49:42;5.70;;;3.53;;
16430;SDS011;8325;49.284;7.238;2022-09-12T10:53:54;3.63;;;3.33;;
16430;SDS011;8325;49.284;7.238;2022-09-12T11:02:29;4.03;;;3.63;;
16430;SDS011;8325;49.284;7.238;2022-09-12T11:11:37;3.78;;;3.42;;
16430;SDS011;8325;49.284;7.238;2022-09-12T11:16:05;2.58;;;2.38;;
16430;SDS011;8325;49.284;7.238;2022-09-12T11:20:33;2.50;;;2.30;;
16430;SDS011;8325;49.284;7.238;2022-09-12T11:29:48;4.32;;;2.53;;
16430;SDS011;8325;49.284;7.238;2022-09-12T11:34:01;2.22;;;2.00;;
16430;SDS011;8325;49.284;7.238;2022-09-12T11:38:27;2.28;;;1.98;;
16430;SDS011;8325;49.284;7.238;2022-09-12T11:42:59;2.55;;;2.35;;
16430;SDS011;8325;49.284;7.238;2022-09-12T11:47:20;4.70;;;2.10;;
16430;SDS011;8325;49.284;7.238;2022-09-12T11:55:55;1.73;;;1.63;;
16430;SDS011;8325;49.284;7.238;2022-09-12T12:00:23;1.90;;;1.80;;
16430;SDS011;8325;49.284;7.238;2022-09-12T12:04:40;2.20;;;2.00;;
16430;SDS011;8325;49.284;7.238;2022-09-12T12:09:04;2.40;;;2.20;;
16430;SDS011;8325;49.284;7.238;2022-09-12T12:18:03;3.30;;;2.00;;
16430;SDS011;8325;49.284;7.238;2022-09-12T12:22:18;2.45;;;1.60;;
16430;SDS011;8325;49.284;7.238;2022-09-12T12:35:35;1.70;;;1.60;;
16430;SDS011;8325;49.284;7.238;2022-09-12T12:44:01;3.40;;;1.80;;
16430;SDS011;8325;49.284;7.238;2022-09-12T12:48:51;1.90;;;1.60;;
16430;SDS011;8325;49.284;7.238;2022-09-12T12:53:17;1.80;;;1.70;;
16430;SDS011;8325;49.284;7.238;2022-09-12T12:57:36;2.28;;;1.40;;
16430;SDS011;8325;49.284;7.238;2022-09-12T13:01:50;1.75;;;1.55;;
16430;SDS011;8325;49.284;7.238;2022-09-12T13:06:06;1.60;;;1.48;;
16430;SDS011;8325;49.284;7.238;2022-09-12T13:10:29;1.98;;;1.70;;
16430;SDS011;8325;49.284;7.238;2022-09-12T13:18:54;2.03;;;1.90;;
16430;SDS011;8325;49.284;7.238;2022-09-12T13:32:23;1.20;;;1.08;;
16430;SDS011;8325;49.284;7.238;2022-09-12T13:45:44;1.67;;;1.58;;
16430;SDS011;8325;49.284;7.238;2022-09-12T13:49:57;2.22;;;1.55;;
16430;SDS011;8325;49.284;7.238;2022-09-12T13:54:14;1.50;;;1.40;;
16430;SDS011;8325;49.284;7.238;2022-09-12T13:58:34;1.83;;;1.73;;
16430;SDS011;8325;49.284;7.238;2022-09-12T14:02:48;1.60;;;1.50;;
16430;SDS011;8325;49.284;7.238;2022-09-12T14:07:21;1.98;;;1.35;;
16430;SDS011;8325;49.284;7.238;2022-09-12T14:11:36;1.88;;;1.63;;
16430;SDS011;8325;49.284;7.238;2022-09-12T14:15:49;1.98;;;1.30;;
16430;SDS011;8325;49.284;7.238;2022-09-12T14:20:21;1.50;;;1.40;;
16430;SDS011;8325;49.284;7.238;2022-09-12T14:24:34;1.75;;;1.60;;
16430;SDS011;8325;49.284;7.238;2022-09-12T14:28:45;1.42;;;1.33;;
16430;SDS011;8325;49.284;7.238;2022-09-12T14:37:21;1.52;;;1.42;;
16430;SDS011;8325;49.284;7.238;2022-09-12T14:41:35;1.48;;;1.38;;
16430;SDS011;8325;49.284;7.238;2022-09-12T14:45:51;3.00;;;1.40;;
16430;SDS011;8325;49.284;7.238;2022-09-12T14:50:11;1.52;;;1.42;;
16430;SDS011;8325;49.284;7.238;2022-09-12T14:58:43;1.50;;;1.40;;
16430;SDS011;8325;49.284;7.238;2022-09-12T15:02:55;1.58;;;1.27;;
16430;SDS011;8325;49.284;7.238;2022-09-12T15:11:46;1.65;;;1.55;;
16430;SDS011;8325;49.284;7.238;2022-09-12T15:15:58;1.27;;;1.17;;
16430;SDS011;8325;49.284;7.238;2022-09-12T15:20:10;1.40;;;1.30;;
16430;SDS011;8325;49.284;7.238;2022-09-12T15:24:23;1.70;;;1.60;;
16430;SDS011;8325;49.284;7.238;2022-09-12T15:28:34;2.60;;;1.30;;
16430;SDS011;8325;49.284;7.238;2022-09-12T15:32:46;1.50;;;1.40;;
16430;SDS011;8325;49.284;7.238;2022-09-12T15:36:57;1.70;;;1.60;;
16430;SDS011;8325;49.284;7.238;2022-09-12T15:41:13;1.77;;;1.60;;
16430;SDS011;8325;49.284;7.238;2022-09-12T15:45:31;1.42;;;1.33;;
16430;SDS011;8325;49.284;7.238;2022-09-12T15:49:44;1.38;;;1.27;;
16430;SDS011;8325;49.284;7.238;2022-09-12T15:53:56;1.60;;;1.50;;
16430;SDS011;8325;49.284;7.238;2022-09-12T15:58:07;1.58;;;1.48;;
16430;SDS011;8325;49.284;7.238;2022-09-12T16:02:19;1.73;;;1.50;;
16430;SDS011;8325;49.284;7.238;2022-09-12T16:06:30;1.67;;;1.30;;
16430;SDS011;8325;49.284;7.238;2022-09-12T16:10:48;2.40;;;1.90;;
16430;SDS011;8325;49.284;7.238;2022-09-12T16:15:04;1.75;;;1.65;;
16430;SDS011;8325;49.284;7.238;2022-09-12T16:19:16;1.90;;;1.70;;
16430;SDS011;8325;49.284;7.238;2022-09-12T16:23:27;2.45;;;1.63;;
16430;SDS011;8325;49.284;7.238;2022-09-12T16:27:39;1.60;;;1.50;;
16430;SDS011;8325;49.284;7.238;2022-09-12T16:31:50;1.60;;;1.50;;
16430;SDS011;8325;49.284;7.238;2022-09-12T16:36:06;1.70;;;1.60;;
16430;SDS011;8325;49.284;7.238;2022-09-12T16:40:19;1.70;;;1.60;;
16430;SDS011;8325;49.284;7.238;2022-09-12T16:44:31;1.55;;;1.45;;
16430;SDS011;8325;49.284;7.238;2022-09-12T16:48:42;1.50;;;1.40;;
16430;SDS011;8325;49.284;7.238;2022-09-12T16:53:01;12.15;;;9.55;;
16430;SDS011;8325;49.284;7.238;2022-09-12T16:57:13;5.03;;;4.28;;
16430;SDS011;8325;49.284;7.238;2022-09-12T17:01:25;3.10;;;2.80;;
16430;SDS011;8325;49.284;7.238;2022-09-12T17:05:37;2.30;;;2.10;;
16430;SDS011;8325;49.284;7.238;2022-09-12T17:09:49;1.95;;;1.85;;
16430;SDS011;8325;49.284;7.238;2022-09-12T17:14:02;2.10;;;1.90;;
16430;SDS011;8325;49.284;7.238;2022-09-12T17:18:17;2.05;;;1.95;;
16430;SDS011;8325;49.284;7.238;2022-09-12T17:22:28;2.17;;;1.98;;
16430;SDS011;8325;49.284;7.238;2022-09-12T17:26:40;2.00;;;1.80;;
16430;SDS011;8325;49.284;7.238;2022-09-12T17:30:55;2.65;;;1.77;;
16430;SDS011;8325;49.284;7.238;2022-09-12T17:35:09;3.08;;;1.95;;
16430;SDS011;8325;49.284;7.238;2022-09-12T17:39:21;3.60;;;1.92;;
16430;SDS011;8325;49.284;7.238;2022-09-12T17:43:33;3.22;;;2.35;;
16430;SDS011;8325;49.284;7.238;2022-09-12T17:47:48;2.40;;;2.20;;
16430;SDS011;8325;49.284;7.238;2022-09-12T17:51:59;3.72;;;2.22;;
16430;SDS011;8325;49.284;7.238;2022-09-12T17:56:12;4.30;;;2.25;;
16430;SDS011;8325;49.284;7.238;2022-09-12T18:00:23;3.25;;;2.33;;
16430;SDS011;8325;49.284;7.238;2022-09-12T18:04:55;3.58;;;2.50;;
16430;SDS011;8325;49.284;7.238;2022-09-12T18:09:07;3.33;;;2.17;;
16430;SDS011;8325;49.284;7.238;2022-09-12T18:13:19;5.40;;;2.50;;
16430;SDS011;8325;49.284;7.238;2022-09-12T18:17:31;4.47;;;3.10;;
16430;SDS011;8325;49.284;7.238;2022-09-12T18:21:43;3.30;;;2.47;;
16430;SDS011;8325;49.284;7.238;2022-09-12T18:26:02;3.15;;;2.60;;
16430;SDS011;8325;49.284;7.238;2022-09-12T18:30:15;2.97;;;2.58;;
16430;SDS011;8325;49.284;7.238;2022-09-12T18:34:32;3.35;;;2.45;;
16430;SDS011;8325;49.284;7.238;2022-09-12T18:38:43;6.53;;;2.50;;
16430;SDS011;8325;49.284;7.238;2022-09-12T18:42:55;6.63;;;2.35;;
16430;SDS011;8325;49.284;7.238;2022-09-12T18:47:07;6.00;;;3.30;;
16430;SDS011;8325;49.284;7.238;2022-09-12T18:51:23;4.10;;;2.30;;
16430;SDS011;8325;49.284;7.238;2022-09-12T18:55:42;2.67;;;2.25;;
16430;SDS011;8325;49.284;7.238;2022-09-12T18:59:54;5.13;;;2.25;;
16430;SDS011;8325;49.284;7.238;2022-09-12T19:04:10;2.75;;;2.53;;
16430;SDS011;8325;49.284;7.238;2022-09-12T19:08:22;3.47;;;2.47;;
16430;SDS011;8325;49.284;7.238;2022-09-12T19:12:34;2.92;;;2.30;;
16430;SDS011;8325;49.284;7.238;2022-09-12T19:16:46;4.35;;;2.50;;
16430;SDS011;8325;49.284;7.238;2022-09-12T19:20:57;2.88;;;2.58;;
16430;SDS011;8325;49.284;7.238;2022-09-12T19:25:09;2.58;;;2.30;;
16430;SDS011;8325;49.284;7.238;2022-09-12T19:29:20;2.75;;;2.50;;
16430;SDS011;8325;49.284;7.238;2022-09-12T19:33:32;2.58;;;2.38;;
16430;SDS011;8325;49.284;7.238;2022-09-12T19:37:43;2.75;;;2.55;;
16430;SDS011;8325;49.284;7.238;2022-09-12T19:41:55;2.80;;;2.60;;
16430;SDS011;8325;49.284;7.238;2022-09-12T19:46:07;4.13;;;3.25;;
16430;SDS011;8325;49.284;7.238;2022-09-12T19:50:18;4.63;;;3.15;;
16430;SDS011;8325;49.284;7.238;2022-09-12T19:54:30;6.32;;;3.58;;
16430;SDS011;8325;49.284;7.238;2022-09-12T19:58:42;4.85;;;3.05;;
16430;SDS011;8325;49.284;7.238;2022-09-12T20:02:55;5.82;;;3.00;;
16430;SDS011;8325;49.284;7.238;2022-09-12T20:07:06;3.50;;;3.10;;
16430;SDS011;8325;49.284;7.238;2022-09-12T20:11:19;3.67;;;3.20;;
16430;SDS011;8325;49.284;7.238;2022-09-12T20:15:31;4.82;;;2.97;;
16430;SDS011;8325;49.284;7.238;2022-09-12T20:19:43;3.28;;;3.00;;
16430;SDS011;8325;49.284;7.238;2022-09-12T20:24:06;3.85;;;3.13;;
16430;SDS011;8325;49.284;7.238;2022-09-12T20:28:22;3.38;;;2.95;;
16430;SDS011;8325;49.284;7.238;2022-09-12T20:32:33;6.57;;;3.42;;
16430;SDS011;8325;49.284;7.238;2022-09-12T20:36:45;4.32;;;2.97;;
16430;SDS011;8325;49.284;7.238;2022-09-12T20:40:59;3.20;;;2.90;;
16430;SDS011;8325;49.284;7.238;2022-09-12T20:45:11;6.95;;;3.25;;
16430;SDS011;8325;49.284;7.238;2022-09-12T20:49:23;3.95;;;3.20;;
16430;SDS011;8325;49.284;7.238;2022-09-12T20:53:34;5.32;;;3.42;;
16430;SDS011;8325;49.284;7.238;2022-09-12T20:57:48;3.40;;;3.10;;
16430;SDS011;8325;49.284;7.238;2022-09-12T21:02:00;5.47;;;3.50;;
16430;SDS011;8325;49.284;7.238;2022-09-12T21:06:12;4.38;;;3.30;;
16430;SDS011;8325;49.284;7.238;2022-09-12T21:10:27;5.45;;;3.40;;
16430;SDS011;8325;49.284;7.238;2022-09-12T21:14:39;5.18;;;3.00;;
16430;SDS011;8325;49.284;7.238;2022-09-12T21:18:52;4.22;;;2.90;;
16430;SDS011;8325;49.284;7.238;2022-09-12T21:23:05;3.85;;;3.08;;
16430;SDS011;8325;49.284;7.238;2022-09-12T21:27:16;3.88;;;3.00;;
